sensor_id;sensor_type;location;lat;lon;timestamp;temperature;humidity
58102;HTU21D;52034;51.926;6.320;2024-02-16T00:00:02;11.59;80.85
58102;HTU21D;52034;51.926;6.320;2024-02-16T00:01:11;11.56;80.89
58102;HTU21D;52034;51.926;6.320;2024-02-16T00:02:15;11.60;80.59
58102;HTU21D;52034;51.926;6.320;2024-02-16T00:03:17;11.61;81.04
58102;HTU21D;52034;51.926;6.320;2024-02-16T00:04:18;11.57;81.34
58102;HTU21D;52034;51.926;6.320;2024-02-16T00:05:20;11.58;80.85
58102;HTU21D;52034;51.926;6.320;2024-02-16T00:06:22;11.53;80.71
58102;HTU21D;52034;51.926;6.320;2024-02-16T00:07:24;11.51;80.85
58102;HTU21D;52034;51.926;6.320;2024-02-16T00:08:25;11.56;81.01
58102;HTU21D;52034;51.926;6.320;2024-02-16T00:09:27;11.58;80.52
58102;HTU21D;52034;51.926;6.320;2024-02-16T00:10:29;11.54;80.44
58102;HTU21D;52034;51.926;6.320;2024-02-16T00:11:31;11.53;80.71
58102;HTU21D;52034;51.926;6.320;2024-02-16T00:12:33;11.52;80.50
58102;HTU21D;52034;51.926;6.320;2024-02-16T00:13:35;11.52;80.68
58102;HTU21D;52034;51.926;6.320;2024-02-16T00:14:37;11.54;80.28
58102;HTU21D;52034;51.926;6.320;2024-02-16T00:15:38;11.54;80.43
58102;HTU21D;52034;51.926;6.320;2024-02-16T00:16:40;11.57;80.51
58102;HTU21D;52034;51.926;6.320;2024-02-16T00:17:42;11.56;80.29
58102;HTU21D;52034;51.926;6.320;2024-02-16T00:18:43;11.56;80.34
58102;HTU21D;52034;51.926;6.320;2024-02-16T00:19:45;11.51;80.37
58102;HTU21D;52034;51.926;6.320;2024-02-16T00:20:47;11.51;80.21
58102;HTU21D;52034;51.926;6.320;2024-02-16T00:21:49;11.52;80.15
58102;HTU21D;52034;51.926;6.320;2024-02-16T00:22:52;11.49;80.18
58102;HTU21D;52034;51.926;6.320;2024-02-16T00:23:54;11.54;80.01
58102;HTU21D;52034;51.926;6.320;2024-02-16T00:24:56;11.53;80.08
58102;HTU21D;52034;51.926;6.320;2024-02-16T00:25:58;11.52;80.55
58102;HTU21D;52034;51.926;6.320;2024-02-16T00:27:00;11.48;80.07
58102;HTU21D;52034;51.926;6.320;2024-02-16T00:28:02;11.52;79.94
58102;HTU21D;52034;51.926;6.320;2024-02-16T00:29:05;11.53;79.96
58102;HTU21D;52034;51.926;6.320;2024-02-16T00:30:07;11.53;79.82
58102;HTU21D;52034;51.926;6.320;2024-02-16T00:31:11;11.52;79.94
58102;HTU21D;52034;51.926;6.320;2024-02-16T00:32:14;11.52;79.98
58102;HTU21D;52034;51.926;6.320;2024-02-16T00:33:16;11.49;80.08
58102;HTU21D;52034;51.926;6.320;2024-02-16T00:34:20;11.44;80.04
58102;HTU21D;52034;51.926;6.320;2024-02-16T00:35:22;11.47;80.04
58102;HTU21D;52034;51.926;6.320;2024-02-16T00:36:26;11.43;80.06
58102;HTU21D;52034;51.926;6.320;2024-02-16T00:37:29;11.45;80.06
58102;HTU21D;52034;51.926;6.320;2024-02-16T00:38:30;11.46;80.10
58102;HTU21D;52034;51.926;6.320;2024-02-16T00:39:32;11.41;80.30
58102;HTU21D;52034;51.926;6.320;2024-02-16T00:40:34;11.37;80.15
58102;HTU21D;52034;51.926;6.320;2024-02-16T00:41:37;11.32;80.15
58102;HTU21D;52034;51.926;6.320;2024-02-16T00:42:39;11.33;79.99
58102;HTU21D;52034;51.926;6.320;2024-02-16T00:43:41;11.31;80.39
58102;HTU21D;52034;51.926;6.320;2024-02-16T00:44:46;11.36;80.43
58102;HTU21D;52034;51.926;6.320;2024-02-16T00:45:48;11.30;80.37
58102;HTU21D;52034;51.926;6.320;2024-02-16T00:46:50;11.28;80.75
58102;HTU21D;52034;51.926;6.320;2024-02-16T00:47:53;11.28;80.59
58102;HTU21D;52034;51.926;6.320;2024-02-16T00:48:54;11.26;80.58
58102;HTU21D;52034;51.926;6.320;2024-02-16T00:49:56;11.27;80.62
58102;HTU21D;52034;51.926;6.320;2024-02-16T00:50:58;11.27;80.42
58102;HTU21D;52034;51.926;6.320;2024-02-16T00:52:01;11.27;80.97
58102;HTU21D;52034;51.926;6.320;2024-02-16T00:53:03;11.26;80.78
58102;HTU21D;52034;51.926;6.320;2024-02-16T00:54:06;11.27;80.92
58102;HTU21D;52034;51.926;6.320;2024-02-16T00:55:07;11.22;80.61
58102;HTU21D;52034;51.926;6.320;2024-02-16T00:56:09;11.25;80.34
58102;HTU21D;52034;51.926;6.320;2024-02-16T00:57:10;11.26;80.59
58102;HTU21D;52034;51.926;6.320;2024-02-16T00:58:12;11.19;80.62
58102;HTU21D;52034;51.926;6.320;2024-02-16T00:59:14;11.20;80.70
58102;HTU21D;52034;51.926;6.320;2024-02-16T01:00:16;11.23;80.49
58102;HTU21D;52034;51.926;6.320;2024-02-16T01:01:17;11.22;80.43
58102;HTU21D;52034;51.926;6.320;2024-02-16T01:02:19;11.14;80.69
58102;HTU21D;52034;51.926;6.320;2024-02-16T01:03:21;11.09;81.00
58102;HTU21D;52034;51.926;6.320;2024-02-16T01:04:24;11.07;80.98
58102;HTU21D;52034;51.926;6.320;2024-02-16T01:05:25;11.10;80.43
58102;HTU21D;52034;51.926;6.320;2024-02-16T01:06:27;11.11;80.71
58102;HTU21D;52034;51.926;6.320;2024-02-16T01:07:29;11.11;80.66
58102;HTU21D;52034;51.926;6.320;2024-02-16T01:08:32;11.10;80.53
58102;HTU21D;52034;51.926;6.320;2024-02-16T01:09:34;11.10;80.65
58102;HTU21D;52034;51.926;6.320;2024-02-16T01:10:35;11.07;81.00
58102;HTU21D;52034;51.926;6.320;2024-02-16T01:11:37;11.02;80.74
58102;HTU21D;52034;51.926;6.320;2024-02-16T01:12:39;11.05;80.82
58102;HTU21D;52034;51.926;6.320;2024-02-16T01:13:40;11.08;80.92
58102;HTU21D;52034;51.926;6.320;2024-02-16T01:14:42;11.01;80.84
58102;HTU21D;52034;51.926;6.320;2024-02-16T01:15:44;11.01;80.87
58102;HTU21D;52034;51.926;6.320;2024-02-16T01:16:46;11.04;80.73
58102;HTU21D;52034;51.926;6.320;2024-02-16T01:17:47;11.08;80.65
58102;HTU21D;52034;51.926;6.320;2024-02-16T01:18:49;11.07;80.61
58102;HTU21D;52034;51.926;6.320;2024-02-16T01:19:51;11.00;80.98
58102;HTU21D;52034;51.926;6.320;2024-02-16T01:20:53;10.99;81.06
58102;HTU21D;52034;51.926;6.320;2024-02-16T01:21:54;11.01;81.17
58102;HTU21D;52034;51.926;6.320;2024-02-16T01:22:59;10.99;80.98
58102;HTU21D;52034;51.926;6.320;2024-02-16T01:24:00;10.94;81.17
58102;HTU21D;52034;51.926;6.320;2024-02-16T01:25:02;10.98;81.14
58102;HTU21D;52034;51.926;6.320;2024-02-16T01:26:04;10.97;81.04
58102;HTU21D;52034;51.926;6.320;2024-02-16T01:27:06;10.95;81.12
58102;HTU21D;52034;51.926;6.320;2024-02-16T01:28:07;10.97;80.97
58102;HTU21D;52034;51.926;6.320;2024-02-16T01:29:09;10.99;80.92
58102;HTU21D;52034;51.926;6.320;2024-02-16T01:30:11;10.98;80.81
58102;HTU21D;52034;51.926;6.320;2024-02-16T01:31:13;10.96;80.86
58102;HTU21D;52034;51.926;6.320;2024-02-16T01:32:14;11.00;80.87
58102;HTU21D;52034;51.926;6.320;2024-02-16T01:33:16;10.95;80.91
58102;HTU21D;52034;51.926;6.320;2024-02-16T01:34:18;10.99;80.91
58102;HTU21D;52034;51.926;6.320;2024-02-16T01:35:20;11.05;80.83
58102;HTU21D;52034;51.926;6.320;2024-02-16T01:36:21;11.04;80.47
58102;HTU21D;52034;51.926;6.320;2024-02-16T01:37:23;11.03;80.55
58102;HTU21D;52034;51.926;6.320;2024-02-16T01:38:25;11.03;80.81
58102;HTU21D;52034;51.926;6.320;2024-02-16T01:39:27;10.97;80.96
58102;HTU21D;52034;51.926;6.320;2024-02-16T01:40:28;11.02;81.07
58102;HTU21D;52034;51.926;6.320;2024-02-16T01:41:30;10.99;80.73
58102;HTU21D;52034;51.926;6.320;2024-02-16T01:42:32;10.95;80.85
58102;HTU21D;52034;51.926;6.320;2024-02-16T01:43:33;10.97;81.09
58102;HTU21D;52034;51.926;6.320;2024-02-16T01:44:35;10.98;81.12
58102;HTU21D;52034;51.926;6.320;2024-02-16T01:45:36;10.98;81.13
58102;HTU21D;52034;51.926;6.320;2024-02-16T01:46:38;10.99;81.03
58102;HTU21D;52034;51.926;6.320;2024-02-16T01:47:41;10.99;80.99
58102;HTU21D;52034;51.926;6.320;2024-02-16T01:48:44;10.98;81.00
58102;HTU21D;52034;51.926;6.320;2024-02-16T01:49:46;10.97;81.24
58102;HTU21D;52034;51.926;6.320;2024-02-16T01:50:49;11.01;81.00
58102;HTU21D;52034;51.926;6.320;2024-02-16T01:51:51;11.05;80.78
58102;HTU21D;52034;51.926;6.320;2024-02-16T01:52:53;11.03;80.98
58102;HTU21D;52034;51.926;6.320;2024-02-16T01:53:55;11.04;80.94
58102;HTU21D;52034;51.926;6.320;2024-02-16T01:54:58;11.00;81.08
58102;HTU21D;52034;51.926;6.320;2024-02-16T01:56:00;10.96;81.10
58102;HTU21D;52034;51.926;6.320;2024-02-16T01:57:02;11.03;81.20
58102;HTU21D;52034;51.926;6.320;2024-02-16T01:58:04;11.03;80.85
58102;HTU21D;52034;51.926;6.320;2024-02-16T01:59:06;11.03;80.85
58102;HTU21D;52034;51.926;6.320;2024-02-16T02:00:07;11.03;80.89
58102;HTU21D;52034;51.926;6.320;2024-02-16T02:01:09;11.02;80.94
58102;HTU21D;52034;51.926;6.320;2024-02-16T02:02:11;11.00;81.23
58102;HTU21D;52034;51.926;6.320;2024-02-16T02:03:13;10.97;81.46
58102;HTU21D;52034;51.926;6.320;2024-02-16T02:04:17;10.98;81.27
58102;HTU21D;52034;51.926;6.320;2024-02-16T02:05:19;11.01;81.14
58102;HTU21D;52034;51.926;6.320;2024-02-16T02:06:21;11.02;81.17
58102;HTU21D;52034;51.926;6.320;2024-02-16T02:07:25;11.05;80.91
58102;HTU21D;52034;51.926;6.320;2024-02-16T02:08:30;11.07;81.07
58102;HTU21D;52034;51.926;6.320;2024-02-16T02:09:32;11.01;81.03
58102;HTU21D;52034;51.926;6.320;2024-02-16T02:10:35;11.04;81.15
58102;HTU21D;52034;51.926;6.320;2024-02-16T02:11:36;10.95;81.29
58102;HTU21D;52034;51.926;6.320;2024-02-16T02:12:39;11.00;81.20
58102;HTU21D;52034;51.926;6.320;2024-02-16T02:13:42;10.98;80.99
58102;HTU21D;52034;51.926;6.320;2024-02-16T02:14:44;10.99;80.94
58102;HTU21D;52034;51.926;6.320;2024-02-16T02:15:45;11.02;81.01
58102;HTU21D;52034;51.926;6.320;2024-02-16T02:16:47;10.94;81.15
58102;HTU21D;52034;51.926;6.320;2024-02-16T02:17:55;10.94;81.52
58102;HTU21D;52034;51.926;6.320;2024-02-16T02:18:59;10.94;81.35
58102;HTU21D;52034;51.926;6.320;2024-02-16T02:20:02;10.86;81.65
58102;HTU21D;52034;51.926;6.320;2024-02-16T02:21:05;10.86;81.59
58102;HTU21D;52034;51.926;6.320;2024-02-16T02:22:14;10.86;81.68
58102;HTU21D;52034;51.926;6.320;2024-02-16T02:23:15;10.73;81.91
58102;HTU21D;52034;51.926;6.320;2024-02-16T02:24:17;10.79;81.85
58102;HTU21D;52034;51.926;6.320;2024-02-16T02:25:19;10.81;82.04
58102;HTU21D;52034;51.926;6.320;2024-02-16T02:26:24;10.82;81.66
58102;HTU21D;52034;51.926;6.320;2024-02-16T02:27:26;10.87;81.30
58102;HTU21D;52034;51.926;6.320;2024-02-16T02:28:28;10.88;81.38
58102;HTU21D;52034;51.926;6.320;2024-02-16T02:29:30;10.87;81.26
58102;HTU21D;52034;51.926;6.320;2024-02-16T02:30:32;10.81;81.60
58102;HTU21D;52034;51.926;6.320;2024-02-16T02:31:34;10.83;81.64
58102;HTU21D;52034;51.926;6.320;2024-02-16T02:32:36;10.81;81.34
58102;HTU21D;52034;51.926;6.320;2024-02-16T02:33:37;10.83;81.26
58102;HTU21D;52034;51.926;6.320;2024-02-16T02:34:39;10.85;81.43
58102;HTU21D;52034;51.926;6.320;2024-02-16T02:35:41;10.86;81.16
58102;HTU21D;52034;51.926;6.320;2024-02-16T02:36:44;10.89;80.93
58102;HTU21D;52034;51.926;6.320;2024-02-16T02:37:45;10.86;81.15
58102;HTU21D;52034;51.926;6.320;2024-02-16T02:38:47;10.87;81.14
58102;HTU21D;52034;51.926;6.320;2024-02-16T02:39:49;10.87;81.10
58102;HTU21D;52034;51.926;6.320;2024-02-16T02:40:51;10.87;81.01
58102;HTU21D;52034;51.926;6.320;2024-02-16T02:41:52;10.84;81.27
58102;HTU21D;52034;51.926;6.320;2024-02-16T02:42:54;10.78;81.60
58102;HTU21D;52034;51.926;6.320;2024-02-16T02:43:56;10.77;81.74
58102;HTU21D;52034;51.926;6.320;2024-02-16T02:44:57;10.77;81.50
58102;HTU21D;52034;51.926;6.320;2024-02-16T02:45:59;10.77;81.61
58102;HTU21D;52034;51.926;6.320;2024-02-16T02:47:00;10.78;81.40
58102;HTU21D;52034;51.926;6.320;2024-02-16T02:48:03;10.78;81.48
58102;HTU21D;52034;51.926;6.320;2024-02-16T02:49:04;10.75;81.41
58102;HTU21D;52034;51.926;6.320;2024-02-16T02:50:07;10.74;81.92
58102;HTU21D;52034;51.926;6.320;2024-02-16T02:51:09;10.69;81.74
58102;HTU21D;52034;51.926;6.320;2024-02-16T02:52:11;10.77;81.71
58102;HTU21D;52034;51.926;6.320;2024-02-16T02:53:13;10.80;81.58
58102;HTU21D;52034;51.926;6.320;2024-02-16T02:54:14;10.80;81.35
58102;HTU21D;52034;51.926;6.320;2024-02-16T02:55:16;10.81;81.15
58102;HTU21D;52034;51.926;6.320;2024-02-16T02:56:18;10.83;81.36
58102;HTU21D;52034;51.926;6.320;2024-02-16T02:57:20;10.84;81.27
58102;HTU21D;52034;51.926;6.320;2024-02-16T02:58:21;10.87;80.97
58102;HTU21D;52034;51.926;6.320;2024-02-16T02:59:23;10.85;81.43
58102;HTU21D;52034;51.926;6.320;2024-02-16T03:00:25;10.86;81.22
58102;HTU21D;52034;51.926;6.320;2024-02-16T03:01:27;10.85;81.26
58102;HTU21D;52034;51.926;6.320;2024-02-16T03:02:29;10.86;81.51
58102;HTU21D;52034;51.926;6.320;2024-02-16T03:03:31;10.88;81.10
58102;HTU21D;52034;51.926;6.320;2024-02-16T03:04:33;10.84;81.14
58102;HTU21D;52034;51.926;6.320;2024-02-16T03:05:35;10.83;81.09
58102;HTU21D;52034;51.926;6.320;2024-02-16T03:06:36;10.83;81.05
58102;HTU21D;52034;51.926;6.320;2024-02-16T03:07:38;10.86;81.21
58102;HTU21D;52034;51.926;6.320;2024-02-16T03:08:40;10.77;81.74
58102;HTU21D;52034;51.926;6.320;2024-02-16T03:09:42;10.78;81.60
58102;HTU21D;52034;51.926;6.320;2024-02-16T03:10:44;10.79;81.33
58102;HTU21D;52034;51.926;6.320;2024-02-16T03:11:46;10.79;81.36
58102;HTU21D;52034;51.926;6.320;2024-02-16T03:12:48;10.80;81.52
58102;HTU21D;52034;51.926;6.320;2024-02-16T03:13:51;10.81;81.40
58102;HTU21D;52034;51.926;6.320;2024-02-16T03:14:52;10.82;81.70
58102;HTU21D;52034;51.926;6.320;2024-02-16T03:15:55;10.81;81.19
58102;HTU21D;52034;51.926;6.320;2024-02-16T03:16:56;10.82;81.45
58102;HTU21D;52034;51.926;6.320;2024-02-16T03:17:58;10.79;81.39
58102;HTU21D;52034;51.926;6.320;2024-02-16T03:19:00;10.79;81.28
58102;HTU21D;52034;51.926;6.320;2024-02-16T03:20:02;10.84;81.14
58102;HTU21D;52034;51.926;6.320;2024-02-16T03:21:04;10.90;81.09
58102;HTU21D;52034;51.926;6.320;2024-02-16T03:22:06;10.89;81.18
58102;HTU21D;52034;51.926;6.320;2024-02-16T03:23:08;10.88;81.18
58102;HTU21D;52034;51.926;6.320;2024-02-16T03:24:10;10.89;81.25
58102;HTU21D;52034;51.926;6.320;2024-02-16T03:25:11;10.90;81.20
58102;HTU21D;52034;51.926;6.320;2024-02-16T03:26:17;10.92;81.20
58102;HTU21D;52034;51.926;6.320;2024-02-16T03:27:19;10.94;81.01
58102;HTU21D;52034;51.926;6.320;2024-02-16T03:28:21;10.96;81.07
58102;HTU21D;52034;51.926;6.320;2024-02-16T03:29:23;10.95;80.99
58102;HTU21D;52034;51.926;6.320;2024-02-16T03:30:24;10.95;81.20
58102;HTU21D;52034;51.926;6.320;2024-02-16T03:31:26;10.94;81.08
58102;HTU21D;52034;51.926;6.320;2024-02-16T03:32:28;10.96;80.98
58102;HTU21D;52034;51.926;6.320;2024-02-16T03:33:29;10.97;81.17
58102;HTU21D;52034;51.926;6.320;2024-02-16T03:34:31;10.99;81.06
58102;HTU21D;52034;51.926;6.320;2024-02-16T03:35:33;10.96;81.37
58102;HTU21D;52034;51.926;6.320;2024-02-16T03:36:34;10.95;81.36
58102;HTU21D;52034;51.926;6.320;2024-02-16T03:37:36;10.94;81.61
58102;HTU21D;52034;51.926;6.320;2024-02-16T03:38:40;10.93;81.49
58102;HTU21D;52034;51.926;6.320;2024-02-16T03:39:42;10.99;81.20
58102;HTU21D;52034;51.926;6.320;2024-02-16T03:40:44;10.99;81.14
58102;HTU21D;52034;51.926;6.320;2024-02-16T03:41:46;11.01;81.19
58102;HTU21D;52034;51.926;6.320;2024-02-16T03:42:53;11.07;80.98
58102;HTU21D;52034;51.926;6.320;2024-02-16T03:43:55;11.03;81.51
58102;HTU21D;52034;51.926;6.320;2024-02-16T03:44:59;11.05;81.31
58102;HTU21D;52034;51.926;6.320;2024-02-16T03:46:00;11.02;81.41
58102;HTU21D;52034;51.926;6.320;2024-02-16T03:47:02;11.02;81.62
58102;HTU21D;52034;51.926;6.320;2024-02-16T03:48:05;11.01;81.60
58102;HTU21D;52034;51.926;6.320;2024-02-16T03:49:07;11.00;81.70
58102;HTU21D;52034;51.926;6.320;2024-02-16T03:50:10;10.98;81.82
58102;HTU21D;52034;51.926;6.320;2024-02-16T03:51:12;11.01;81.87
58102;HTU21D;52034;51.926;6.320;2024-02-16T03:52:14;10.99;81.97
58102;HTU21D;52034;51.926;6.320;2024-02-16T03:53:15;10.89;82.52
58102;HTU21D;52034;51.926;6.320;2024-02-16T03:54:17;10.93;82.15
58102;HTU21D;52034;51.926;6.320;2024-02-16T03:55:19;10.96;82.04
58102;HTU21D;52034;51.926;6.320;2024-02-16T03:56:21;11.00;81.67
58102;HTU21D;52034;51.926;6.320;2024-02-16T03:57:23;11.04;81.95
58102;HTU21D;52034;51.926;6.320;2024-02-16T03:58:25;11.04;81.62
58102;HTU21D;52034;51.926;6.320;2024-02-16T03:59:26;11.02;81.55
58102;HTU21D;52034;51.926;6.320;2024-02-16T04:00:29;11.01;81.97
58102;HTU21D;52034;51.926;6.320;2024-02-16T04:01:31;10.98;82.05
58102;HTU21D;52034;51.926;6.320;2024-02-16T04:02:32;10.98;82.24
58102;HTU21D;52034;51.926;6.320;2024-02-16T04:03:34;10.96;81.63
58102;HTU21D;52034;51.926;6.320;2024-02-16T04:04:36;10.95;82.14
58102;HTU21D;52034;51.926;6.320;2024-02-16T04:05:38;10.92;82.21
58102;HTU21D;52034;51.926;6.320;2024-02-16T04:06:40;10.95;81.72
58102;HTU21D;52034;51.926;6.320;2024-02-16T04:07:42;10.93;81.81
58102;HTU21D;52034;51.926;6.320;2024-02-16T04:08:43;10.89;81.78
58102;HTU21D;52034;51.926;6.320;2024-02-16T04:09:45;10.89;81.76
58102;HTU21D;52034;51.926;6.320;2024-02-16T04:10:47;10.90;82.07
58102;HTU21D;52034;51.926;6.320;2024-02-16T04:11:49;10.88;81.53
58102;HTU21D;52034;51.926;6.320;2024-02-16T04:12:50;10.88;81.73
58102;HTU21D;52034;51.926;6.320;2024-02-16T04:13:52;10.90;81.84
58102;HTU21D;52034;51.926;6.320;2024-02-16T04:14:53;10.88;81.98
58102;HTU21D;52034;51.926;6.320;2024-02-16T04:15:55;10.85;82.10
58102;HTU21D;52034;51.926;6.320;2024-02-16T04:16:57;10.90;82.36
58102;HTU21D;52034;51.926;6.320;2024-02-16T04:18:02;10.96;82.28
58102;HTU21D;52034;51.926;6.320;2024-02-16T04:19:04;10.98;81.43
58102;HTU21D;52034;51.926;6.320;2024-02-16T04:20:06;10.97;81.60
58102;HTU21D;52034;51.926;6.320;2024-02-16T04:21:08;10.98;81.59
58102;HTU21D;52034;51.926;6.320;2024-02-16T04:22:10;10.98;81.84
58102;HTU21D;52034;51.926;6.320;2024-02-16T04:23:11;10.97;81.71
58102;HTU21D;52034;51.926;6.320;2024-02-16T04:24:13;10.97;81.50
58102;HTU21D;52034;51.926;6.320;2024-02-16T04:25:15;10.89;81.72
58102;HTU21D;52034;51.926;6.320;2024-02-16T04:26:16;10.88;82.18
58102;HTU21D;52034;51.926;6.320;2024-02-16T04:27:18;10.94;81.66
58102;HTU21D;52034;51.926;6.320;2024-02-16T04:28:20;10.98;81.64
58102;HTU21D;52034;51.926;6.320;2024-02-16T04:29:22;10.94;81.17
58102;HTU21D;52034;51.926;6.320;2024-02-16T04:30:23;10.93;81.17
58102;HTU21D;52034;51.926;6.320;2024-02-16T04:31:25;10.94;81.17
58102;HTU21D;52034;51.926;6.320;2024-02-16T04:32:27;10.94;81.20
58102;HTU21D;52034;51.926;6.320;2024-02-16T04:33:28;10.93;81.39
58102;HTU21D;52034;51.926;6.320;2024-02-16T04:34:30;10.90;81.35
58102;HTU21D;52034;51.926;6.320;2024-02-16T04:35:32;10.86;81.46
58102;HTU21D;52034;51.926;6.320;2024-02-16T04:36:35;10.84;81.68
58102;HTU21D;52034;51.926;6.320;2024-02-16T04:37:36;10.84;82.05
58102;HTU21D;52034;51.926;6.320;2024-02-16T04:38:38;10.81;82.01
58102;HTU21D;52034;51.926;6.320;2024-02-16T04:39:40;10.80;82.20
58102;HTU21D;52034;51.926;6.320;2024-02-16T04:40:41;10.78;81.97
58102;HTU21D;52034;51.926;6.320;2024-02-16T04:41:43;10.78;81.62
58102;HTU21D;52034;51.926;6.320;2024-02-16T04:42:45;10.79;81.84
58102;HTU21D;52034;51.926;6.320;2024-02-16T04:43:46;10.75;82.11
58102;HTU21D;52034;51.926;6.320;2024-02-16T04:44:48;10.74;82.23
58102;HTU21D;52034;51.926;6.320;2024-02-16T04:45:50;10.71;82.20
58102;HTU21D;52034;51.926;6.320;2024-02-16T04:46:52;10.72;81.92
58102;HTU21D;52034;51.926;6.320;2024-02-16T04:47:54;10.71;81.52
58102;HTU21D;52034;51.926;6.320;2024-02-16T04:48:56;10.74;82.41
58102;HTU21D;52034;51.926;6.320;2024-02-16T04:49:58;10.77;82.12
58102;HTU21D;52034;51.926;6.320;2024-02-16T04:51:00;10.82;82.07
58102;HTU21D;52034;51.926;6.320;2024-02-16T04:52:02;10.85;82.09
58102;HTU21D;52034;51.926;6.320;2024-02-16T04:53:03;10.83;82.02
58102;HTU21D;52034;51.926;6.320;2024-02-16T04:54:05;10.82;82.47
58102;HTU21D;52034;51.926;6.320;2024-02-16T04:55:07;10.83;82.37
58102;HTU21D;52034;51.926;6.320;2024-02-16T04:56:09;10.87;82.11
58102;HTU21D;52034;51.926;6.320;2024-02-16T04:57:11;10.86;82.54
58102;HTU21D;52034;51.926;6.320;2024-02-16T04:58:12;10.86;81.58
58102;HTU21D;52034;51.926;6.320;2024-02-16T04:59:17;10.78;82.22
58102;HTU21D;52034;51.926;6.320;2024-02-16T05:00:19;10.83;82.55
58102;HTU21D;52034;51.926;6.320;2024-02-16T05:01:20;10.84;82.55
58102;HTU21D;52034;51.926;6.320;2024-02-16T05:02:22;10.87;81.95
58102;HTU21D;52034;51.926;6.320;2024-02-16T05:03:24;10.88;82.29
58102;HTU21D;52034;51.926;6.320;2024-02-16T05:04:26;10.89;81.50
58102;HTU21D;52034;51.926;6.320;2024-02-16T05:05:28;10.82;82.08
58102;HTU21D;52034;51.926;6.320;2024-02-16T05:06:30;10.82;81.76
58102;HTU21D;52034;51.926;6.320;2024-02-16T05:07:32;10.90;81.74
58102;HTU21D;52034;51.926;6.320;2024-02-16T05:08:34;10.89;82.06
58102;HTU21D;52034;51.926;6.320;2024-02-16T05:09:35;10.84;82.20
58102;HTU21D;52034;51.926;6.320;2024-02-16T05:10:37;10.79;82.60
58102;HTU21D;52034;51.926;6.320;2024-02-16T05:11:39;10.71;81.97
58102;HTU21D;52034;51.926;6.320;2024-02-16T05:12:40;10.70;82.08
58102;HTU21D;52034;51.926;6.320;2024-02-16T05:13:42;10.77;81.97
58102;HTU21D;52034;51.926;6.320;2024-02-16T05:14:48;10.81;82.15
58102;HTU21D;52034;51.926;6.320;2024-02-16T05:15:50;10.81;82.32
58102;HTU21D;52034;51.926;6.320;2024-02-16T05:16:52;10.80;81.93
58102;HTU21D;52034;51.926;6.320;2024-02-16T05:17:55;10.81;82.37
58102;HTU21D;52034;51.926;6.320;2024-02-16T05:18:57;10.81;82.96
58102;HTU21D;52034;51.926;6.320;2024-02-16T05:19:58;10.80;82.43
58102;HTU21D;52034;51.926;6.320;2024-02-16T05:21:00;10.86;82.57
58102;HTU21D;52034;51.926;6.320;2024-02-16T05:22:02;10.84;81.90
58102;HTU21D;52034;51.926;6.320;2024-02-16T05:23:04;10.81;82.28
58102;HTU21D;52034;51.926;6.320;2024-02-16T05:24:06;10.82;81.92
58102;HTU21D;52034;51.926;6.320;2024-02-16T05:25:08;10.86;82.19
58102;HTU21D;52034;51.926;6.320;2024-02-16T05:26:10;10.88;82.10
58102;HTU21D;52034;51.926;6.320;2024-02-16T05:27:12;10.89;81.77
58102;HTU21D;52034;51.926;6.320;2024-02-16T05:28:14;10.94;82.03
58102;HTU21D;52034;51.926;6.320;2024-02-16T05:29:16;10.88;82.07
58102;HTU21D;52034;51.926;6.320;2024-02-16T05:30:18;10.92;82.09
58102;HTU21D;52034;51.926;6.320;2024-02-16T05:31:20;10.93;81.97
58102;HTU21D;52034;51.926;6.320;2024-02-16T05:32:22;10.96;81.68
58102;HTU21D;52034;51.926;6.320;2024-02-16T05:33:24;11.00;81.84
58102;HTU21D;52034;51.926;6.320;2024-02-16T05:34:26;11.00;81.27
58102;HTU21D;52034;51.926;6.320;2024-02-16T05:35:28;10.99;81.94
58102;HTU21D;52034;51.926;6.320;2024-02-16T05:36:32;11.07;81.63
58102;HTU21D;52034;51.926;6.320;2024-02-16T05:37:38;11.09;81.75
58102;HTU21D;52034;51.926;6.320;2024-02-16T05:38:41;11.12;81.36
58102;HTU21D;52034;51.926;6.320;2024-02-16T05:39:43;11.11;81.48
58102;HTU21D;52034;51.926;6.320;2024-02-16T05:41:09;11.10;81.74
58102;HTU21D;52034;51.926;6.320;2024-02-16T05:42:12;11.10;81.07
58102;HTU21D;52034;51.926;6.320;2024-02-16T05:43:16;11.09;81.76
58102;HTU21D;52034;51.926;6.320;2024-02-16T05:44:19;11.09;81.75
58102;HTU21D;52034;51.926;6.320;2024-02-16T05:45:21;11.12;81.77
58102;HTU21D;52034;51.926;6.320;2024-02-16T05:46:23;11.14;81.42
58102;HTU21D;52034;51.926;6.320;2024-02-16T05:47:25;11.12;81.55
58102;HTU21D;52034;51.926;6.320;2024-02-16T05:48:26;11.11;80.69
58102;HTU21D;52034;51.926;6.320;2024-02-16T05:49:30;11.14;81.83
58102;HTU21D;52034;51.926;6.320;2024-02-16T05:50:32;11.16;81.26
58102;HTU21D;52034;51.926;6.320;2024-02-16T05:51:35;11.12;82.10
58102;HTU21D;52034;51.926;6.320;2024-02-16T05:52:38;11.16;81.57
58102;HTU21D;52034;51.926;6.320;2024-02-16T05:53:40;11.17;81.60
58102;HTU21D;52034;51.926;6.320;2024-02-16T05:54:43;11.17;81.41
58102;HTU21D;52034;51.926;6.320;2024-02-16T05:55:45;11.17;81.38
58102;HTU21D;52034;51.926;6.320;2024-02-16T05:56:47;11.17;81.19
58102;HTU21D;52034;51.926;6.320;2024-02-16T05:57:50;11.17;80.92
58102;HTU21D;52034;51.926;6.320;2024-02-16T05:58:52;11.23;81.88
58102;HTU21D;52034;51.926;6.320;2024-02-16T05:59:54;11.22;81.36
58102;HTU21D;52034;51.926;6.320;2024-02-16T06:00:57;11.22;81.45
58102;HTU21D;52034;51.926;6.320;2024-02-16T06:01:59;11.24;81.05
58102;HTU21D;52034;51.926;6.320;2024-02-16T06:03:01;11.25;81.65
58102;HTU21D;52034;51.926;6.320;2024-02-16T06:04:03;11.28;81.26
58102;HTU21D;52034;51.926;6.320;2024-02-16T06:05:05;11.29;80.78
58102;HTU21D;52034;51.926;6.320;2024-02-16T06:06:06;11.30;81.74
58102;HTU21D;52034;51.926;6.320;2024-02-16T06:07:10;11.29;81.14
58102;HTU21D;52034;51.926;6.320;2024-02-16T06:08:13;11.32;80.51
58102;HTU21D;52034;51.926;6.320;2024-02-16T06:09:15;11.30;81.36
58102;HTU21D;52034;51.926;6.320;2024-02-16T06:10:17;11.31;81.15
58102;HTU21D;52034;51.926;6.320;2024-02-16T06:11:19;11.31;81.34
58102;HTU21D;52034;51.926;6.320;2024-02-16T06:12:21;11.37;80.41
58102;HTU21D;52034;51.926;6.320;2024-02-16T06:13:23;11.34;81.06
58102;HTU21D;52034;51.926;6.320;2024-02-16T06:14:25;11.32;80.77
58102;HTU21D;52034;51.926;6.320;2024-02-16T06:15:26;11.34;80.71
58102;HTU21D;52034;51.926;6.320;2024-02-16T06:16:28;11.34;80.96
58102;HTU21D;52034;51.926;6.320;2024-02-16T06:17:30;11.33;80.75
58102;HTU21D;52034;51.926;6.320;2024-02-16T06:18:31;11.37;80.70
58102;HTU21D;52034;51.926;6.320;2024-02-16T06:19:33;11.38;80.57
58102;HTU21D;52034;51.926;6.320;2024-02-16T06:20:35;11.38;80.56
58102;HTU21D;52034;51.926;6.320;2024-02-16T06:21:36;11.38;80.81
58102;HTU21D;52034;51.926;6.320;2024-02-16T06:22:38;11.39;80.43
58102;HTU21D;52034;51.926;6.320;2024-02-16T06:23:40;11.40;80.92
58102;HTU21D;52034;51.926;6.320;2024-02-16T06:24:41;11.43;80.29
58102;HTU21D;52034;51.926;6.320;2024-02-16T06:25:43;11.42;81.04